Time;durP1;ratioP1;P1;durP2;ratioP2;P2;SDS_P1;SDS_P2;PMS_P1;PMS_P2;Temp;Humidity;BMP_temperature;BMP_pressure;BME280_temperature;BME280_humidity;BME280_pressure;Samples;Min_cycle;Max_cycle;Signal;HPM_P1;HPM_P2
2022/06/12 00:01:03;;;;;;;19.98;3.83;;;;;;;;;;5099580;27;20047;-71
2022/06/12 00:03:32;;;;;;;21.83;4.07;;;;;;;;;;5116572;27;20081;-72
2022/06/12 00:05:59;;;;;;;21.55;3.72;;;16.10;97.10;;;;;;5134675;27;20051;-72
2022/06/12 00:08:27;;;;;;;23.75;3.97;;;16.00;97.20;;;;;;5116103;27;20043;-72
2022/06/12 00:10:56;;;;;;;15.15;3.78;;;15.90;99.90;;;;;;5116620;27;20512;-72
2022/06/12 00:13:28;;;;;;;17.67;3.70;;;16.00;97.40;;;;;;5116254;27;20046;-71
2022/06/12 00:15:55;;;;;;;18.20;3.72;;;16.20;99.90;;;;;;5116628;27;20508;-72
2022/06/12 00:18:21;;;;;;;20.08;3.78;;;15.70;99.90;;;;;;5116109;27;20039;-72
2022/06/12 00:20:48;;;;;;;26.30;4.60;;;;;;;;;;5116161;27;20050;-72
2022/06/12 00:23:16;;;;;;;16.20;4.68;;;15.90;97.70;;;;;;5116351;27;20039;-71
2022/06/12 00:25:42;;;;;;;22.55;4.38;;;;;;;;;;5099333;27;20043;-71
2022/06/12 00:28:08;;;;;;;22.33;4.22;;;16.80;99.90;;;;;;5115981;27;20096;-71
2022/06/12 00:30:35;;;;;;;21.77;4.18;;;;;;;;;;5099052;28;20081;-71
2022/06/12 00:33:01;;;;;;;22.98;4.35;;;;;;;;;;5099024;27;20487;-71
2022/06/12 00:35:31;;;;;;;16.48;3.83;;;15.80;98.00;;;;;;5098943;28;20385;-71
2022/06/12 00:37:57;;;;;;;25.33;4.03;;;14.90;99.90;;;;;;5115916;27;20035;-71
2022/06/12 00:40:23;;;;;;;20.98;4.65;;;;;;;;;;5115773;27;20042;-72
2022/06/12 00:42:53;;;;;;;23.88;3.95;;;15.70;98.20;;;;;;5115854;28;20046;-71
2022/06/12 00:45:32;;;;;;;21.98;3.88;;;;;;;;;;5099092;28;20054;-71
2022/06/12 00:48:03;;;;;;;25.90;3.78;;;;;;;;;;5115667;27;20121;-71
2022/06/12 00:50:30;;;;;;;15.10;3.50;;;15.60;98.30;;;;;;5115773;28;20047;-71
2022/06/12 00:52:58;;;;;;;16.60;3.50;;;14.70;99.90;;;;;;5116170;28;20387;-71
2022/06/12 00:55:32;;;;;;;19.23;3.97;;;15.50;98.60;;;;;;5115803;28;20391;-71
2022/06/12 00:58:05;;;;;;;16.48;3.25;;;15.50;98.60;;;;;;5099002;28;20123;-71
2022/06/12 01:00:33;;;;;;;20.48;3.67;;;15.60;98.60;;;;;;5115755;28;20048;-71
2022/06/12 01:02:59;;;;;;;19.55;3.78;;;;;;;;;;5115633;28;20422;-70
2022/06/12 01:08:11;;;;;;;19.38;3.47;;;;;;;;;;5115528;28;20047;-71
2022/06/12 01:10:39;;;;;;;22.58;4.13;;;;;;;;;;5115435;28;20062;-71
2022/06/12 01:13:15;;;;;;;18.05;3.70;;;15.20;99.10;;;;;;5115499;28;20455;-71
2022/06/12 01:15:45;;;;;;;16.73;3.53;;;15.60;99.10;;;;;;5115709;28;20114;-71
2022/06/12 01:18:15;;;;;;;20.75;3.97;;;16.50;99.90;;;;;;5115852;28;20045;-71
2022/06/12 01:20:57;;;;;;;19.55;3.65;;;15.40;99.40;;;;;;5115847;28;20039;-71
2022/06/12 01:23:35;;;;;;;20.52;4.07;;;;;;;;;;5115844;28;20043;-72
2022/06/12 01:26:22;;;;;;;19.80;4.60;;;16.40;99.90;;;;;;5115541;28;20035;-71
2022/06/12 01:29:01;;;;;;;18.45;3.92;;;;;;;;;;5115461;28;20045;-71
2022/06/12 01:31:32;;;;;;;16.25;3.72;;;15.40;98.80;;;;;;5115662;28;20386;-71
2022/06/12 01:33:58;;;;;;;19.15;3.88;;;;;;;;;;5098806;28;20042;-71
2022/06/12 01:36:46;;;;;;;14.20;3.67;;;15.10;98.90;;;;;;5115758;28;20039;-72
2022/06/12 01:39:58;;;;;;;18.45;4.25;;;15.20;99.90;;;;;;5115344;28;20491;-74
2022/06/12 01:42:45;;;;;;;17.20;4.03;;;15.30;99.90;;;;;;5066401;28;20058;-74
2022/06/12 01:45:33;;;;;;;15.95;4.18;;;15.20;99.80;;;;;;5115506;28;20119;-74
2022/06/12 01:48:18;;;;;;;19.83;3.58;;;;;;;;;;5115554;28;20422;-74
2022/06/12 01:50:58;;;;;;;21.55;3.85;;;15.00;99.90;;;;;;5115681;28;20200;-74
2022/06/12 01:53:37;;;;;;;20.67;4.20;;;15.00;99.90;;;;;;5115106;28;20031;-74
2022/06/12 01:56:06;;;;;;;18.67;4.05;;;;;;;;;;5115258;28;20050;-74
2022/06/12 01:58:46;;;;;;;21.20;4.55;;;14.90;99.90;;;;;;5098265;28;20067;-74
2022/06/12 02:01:24;;;;;;;21.02;4.20;;;15.00;99.90;;;;;;5119110;27;20077;-74
2022/06/12 02:04:01;;;;;;;23.20;3.88;;;15.10;99.90;;;;;;5101965;27;20046;-74
2022/06/12 02:06:35;;;;;;;23.25;3.80;;;15.20;99.90;;;;;;5118923;27;20104;-74
2022/06/12 02:09:08;;;;;;;20.02;4.10;;;15.00;99.90;;;;;;5118529;27;20064;-75
2022/06/12 02:14:41;;;;;;;17.80;4.07;;;14.90;99.90;;;;;;5118673;27;20068;-75
2022/06/12 02:17:16;;;;;;;21.60;4.78;;;14.80;99.90;;;;;;5118541;27;20039;-74
2022/06/12 02:19:46;;;;;;;24.92;4.25;;;14.80;99.90;;;;;;5118572;27;20051;-74
2022/06/12 02:22:19;;;;;;;19.33;3.80;;;14.80;99.90;;;;;;5118634;27;20043;-75
2022/06/12 02:24:48;;;;;;;23.20;4.38;;;;;;;;;;5136681;27;20497;-74
2022/06/12 02:27:19;;;;;;;22.42;4.20;;;;;;;;;;5118311;27;20046;-75
2022/06/12 02:29:49;;;;;;;22.75;3.97;;;;;;;;;;5118575;27;20083;-74
2022/06/12 02:32:27;;;;;;;19.58;3.80;;;13.70;99.90;;;;;;5118287;27;20067;-74
2022/06/12 02:34:56;;;;;;;28.70;5.30;;;;;;;;;;5118621;27;20107;-75
2022/06/12 02:37:35;;;;;;;25.05;4.43;;;14.60;99.90;;;;;;5101294;27;20039;-74
2022/06/12 02:40:10;;;;;;;24.67;4.85;;;14.80;99.90;;;;;;5118408;27;20043;-74
2022/06/12 02:42:42;;;;;;;18.20;3.83;;;14.90;99.90;;;;;;5101419;27;20497;-74
2022/06/12 02:45:14;;;;;;;16.42;3.90;;;14.70;99.90;;;;;;5118457;27;20441;-74
2022/06/12 02:47:42;;;;;;;19.58;4.30;;;14.80;99.90;;;;;;5118107;27;20046;-74
2022/06/12 02:50:10;;;;;;;24.88;4.07;;;13.60;99.90;;;;;;5118042;27;20043;-74
2022/06/12 02:52:53;;;;;;;24.75;4.35;;;;;;;;;;5117745;27;20038;-75
2022/06/12 02:55:44;;;;;;;18.48;4.30;;;14.90;99.90;;;;;;5100985;27;20053;-74
2022/06/12 02:58:27;;;;;;;16.98;4.65;;;14.70;99.90;;;;;;5117791;27;20035;-74
2022/06/12 03:01:01;;;;;;;22.90;4.75;;;14.30;99.90;;;;;;5117812;27;20047;-74
2022/06/12 03:03:39;;;;;;;24.58;4.55;;;14.70;99.90;;;;;;5117871;27;20447;-74
2022/06/12 03:06:06;;;;;;;22.13;4.43;;;;;;;;;;5100577;27;20039;-74
2022/06/12 03:08:34;;;;;;;15.40;3.63;;;;;;;;;;5117068;27;20042;-75
2022/06/12 03:11:14;;;;;;;24.00;4.60;;;14.80;99.90;;;;;;5116253;27;20054;-74
2022/06/12 03:13:40;;;;;;;20.05;4.43;;;;;;;;;;5117430;27;20172;-75
2022/06/12 03:16:12;;;;;;;25.30;4.65;;;;;;;;;;5117608;27;20517;-75
2022/06/12 03:18:43;;;;;;;24.88;4.53;;;15.30;99.90;;;;;;5117384;27;20497;-74
2022/06/12 03:21:22;;;;;;;20.30;5.13;;;;;;;;;;5117677;27;20039;-74
2022/06/12 03:24:21;;;;;;;19.77;3.83;;;14.70;99.90;;;;;;5117295;27;20039;-74
2022/06/12 03:26:47;;;;;;;22.60;4.10;;;;;;;;;;5100406;27;20058;-74
2022/06/12 03:29:22;;;;;;;23.40;4.65;;;14.50;99.90;;;;;;5117221;27;20486;-75
2022/06/12 03:31:56;;;;;;;17.95;4.55;;;;;;;;;;5117491;27;20069;-74
2022/06/12 03:34:52;;;;;;;21.88;4.88;;;14.60;99.90;;;;;;5117329;27;20035;-74
2022/06/12 03:37:51;;;;;;;24.90;4.40;;;14.70;99.90;;;;;;5117021;27;20035;-74
2022/06/12 03:40:25;;;;;;;24.15;4.75;;;14.70;99.90;;;;;;5116860;27;20046;-75
2022/06/12 03:43:19;;;;;;;28.83;5.90;;;14.60;99.90;;;;;;5099860;27;20480;-75
2022/06/12 03:46:06;;;;;;;19.67;4.65;;;14.40;99.90;;;;;;5116913;27;20039;-71
2022/06/12 03:48:56;;;;;;;23.50;5.00;;;14.70;99.90;;;;;;5116948;27;20490;-71
2022/06/12 03:51:30;;;;;;;26.60;4.55;;;14.60;99.90;;;;;;5116623;27;20035;-71
2022/06/12 03:54:26;;;;;;;27.63;4.50;;;14.50;99.90;;;;;;5099647;27;20487;-72
2022/06/12 04:00:00;;;;;;;20.23;4.30;;;14.70;99.90;;;;;;5116498;27;20051;-74
2022/06/12 04:02:27;;;;;;;27.95;4.80;;;;;;;;;;5116556;27;20045;-74
2022/06/12 04:04:54;;;;;;;23.55;4.40;;;14.70;99.90;;;;;;5099832;27;20491;-71
2022/06/12 04:07:23;;;;;;;28.10;5.13;;;14.70;99.90;;;;;;5099629;27;20039;-71
2022/06/12 04:09:52;;;;;;;27.60;4.90;;;14.70;99.90;;;;;;5112648;28;20046;-71
2022/06/12 04:12:24;;;;;;;24.90;4.55;;;;;;;;;;5112940;28;20480;-74
2022/06/12 04:15:08;;;;;;;20.90;4.65;;;14.90;99.90;;;;;;5112875;28;20097;-74
2022/06/12 04:17:34;;;;;;;21.88;3.97;;;14.70;99.90;;;;;;5113267;28;20109;-75
2022/06/12 04:20:04;;;;;;;22.50;4.50;;;;;;;;;;5112837;28;20560;-75
2022/06/12 04:22:59;;;;;;;30.83;4.53;;;14.90;99.90;;;;;;5112384;28;20467;-75
2022/06/12 04:25:26;;;;;;;21.50;3.95;;;;;;;;;;5112702;28;20552;-75
2022/06/12 04:27:52;;;;;;;30.33;4.78;;;;;;;;;;5112810;28;20514;-75
2022/06/12 04:30:27;;;;;;;25.40;4.25;;;;;;;;;;5112541;28;20096;-75
2022/06/12 04:33:19;;;;;;;28.27;4.63;;;14.90;99.90;;;;;;5112533;28;20050;-75
2022/06/12 04:35:51;;;;;;;22.13;4.65;;;15.00;99.90;;;;;;5112917;28;20046;-75
2022/06/12 04:38:17;;;;;;;29.23;4.43;;;;;;;;;;5112875;28;20114;-74
2022/06/12 04:40:43;;;;;;;20.95;4.72;;;;;;;;;;5095716;28;20047;-74
2022/06/12 04:43:09;;;;;;;33.50;4.90;;;;;;;;;;5095396;28;20585;-74
2022/06/12 04:45:35;;;;;;;24.23;4.63;;;;;;;;;;5095668;28;20059;-74
2022/06/12 04:48:03;;;;;;;27.90;4.97;;;15.20;99.90;;;;;;5112621;28;20093;-74
2022/06/12 04:50:29;;;;;;;29.60;5.53;;;;;;;;;;5112201;28;20492;-74
2022/06/12 04:52:55;;;;;;;29.45;5.07;;;;;;;;;;5095525;28;20043;-74
2022/06/12 04:55:21;;;;;;;29.95;5.22;;;;;;;;;;5112471;28;20118;-74
2022/06/12 04:57:47;;;;;;;23.25;5.55;;;;;;;;;;5095305;28;20036;-75
2022/06/12 05:00:20;;;;;;;37.42;6.75;;;16.30;99.90;;;;;;5113034;28;20051;-75
2022/06/12 05:02:45;;;;;;;;;;;15.30;99.90;;;;;;5096953;28;20039;-75
2022/06/12 05:05:11;;;;;;;25.58;5.18;;;;;;;;;;5112367;28;19923;-75
2022/06/12 05:07:37;;;;;;;25.23;5.60;;;;;;;;;;5112222;28;20071;-75
2022/06/12 05:10:03;;;;;;;38.30;6.47;;;16.30;99.90;;;;;;5095019;28;20492;-75
2022/06/12 05:12:30;;;;;;;29.77;5.55;;;;;;;;;;5078823;28;20039;-75
2022/06/12 05:14:56;;;;;;;32.85;6.32;;;;;;;;;;5112101;28;20127;-75
2022/06/12 05:17:22;;;;;;;39.00;6.15;;;;;;;;;;5112115;28;20044;-75
2022/06/12 05:19:49;;;;;;;35.15;6.10;;;14.80;99.90;;;;;;5112407;28;20047;-75
2022/06/12 05:22:15;;;;;;;29.60;5.88;;;16.40;99.90;;;;;;5095544;28;20392;-75
2022/06/12 05:24:45;;;;;;;26.33;5.90;;;15.40;99.90;;;;;;5112150;28;20088;-75
2022/06/12 05:27:16;;;;;;;39.55;7.63;;;15.60;99.90;;;;;;5095269;28;20042;-75
2022/06/12 05:29:43;;;;;;;35.73;5.90;;;;;;;;;;5112185;28;20040;-75
2022/06/12 05:32:12;;;;;;;38.13;7.80;;;15.70;99.90;;;;;;5112307;28;20277;-75
2022/06/12 05:34:38;;;;;;;36.83;6.63;;;15.00;99.90;;;;;;5113818;28;20039;-75
2022/06/12 05:37:04;;;;;;;43.42;6.57;;;16.80;99.90;;;;;;5116294;28;20092;-75
2022/06/12 05:39:31;;;;;;;40.72;8.40;;;;;;;;;;5098949;28;20044;-75
2022/06/12 05:41:56;;;;;;;39.00;7.38;;;17.00;99.90;;;;;;5098849;28;20543;-75
2022/06/12 05:44:22;;;;;;;27.77;5.38;;;;;;;;;;5115748;28;20131;-75
2022/06/12 05:46:49;;;;;;;33.75;6.18;;;;;;;;;;5115812;28;20487;-75
2022/06/12 05:49:16;;;;;;;49.45;6.60;;;16.20;99.90;;;;;;5115609;28;20043;-75
2022/06/12 05:51:42;;;;;;;37.10;6.70;;;;;;;;;;5115702;28;20482;-75
2022/06/12 05:54:08;;;;;;;32.53;6.60;;;;;;;;;;5115620;28;20391;-75
2022/06/12 05:56:35;;;;;;;37.40;6.45;;;;;;;;;;5115819;28;20028;-75
2022/06/12 05:59:01;;;;;;;32.15;6.63;;;;;;;;;;5115656;28;20062;-75
2022/06/12 06:01:27;;;;;;;37.42;6.80;;;15.20;99.90;;;;;;5115442;28;20118;-75
2022/06/12 06:03:54;;;;;;;44.38;8.02;;;;;;;;;;5115577;28;20043;-75
2022/06/12 06:06:29;;;;;;;41.47;7.68;;;16.10;99.90;;;;;;5115511;28;20117;-75
2022/06/12 06:08:55;;;;;;;46.10;7.15;;;;;;;;;;5115286;28;20112;-75
2022/06/12 06:11:21;;;;;;;40.47;7.80;;;;;;;;;;5115279;28;20045;-75
2022/06/12 06:13:48;;;;;;;39.67;7.82;;;;;;;;;;5115552;28;20120;-75
2022/06/12 06:16:15;;;;;;;36.08;7.32;;;;;;;;;;5115154;28;20059;-75
2022/06/12 06:18:41;;;;;;;36.95;6.57;;;;;;;;;;5115429;28;20058;-75
2022/06/12 06:21:10;;;;;;;36.33;7.05;;;16.30;99.90;;;;;;5115080;28;20085;-75
2022/06/12 06:23:38;;;;;;;41.30;7.80;;;16.60;99.90;;;;;;5115537;28;20061;-75
2022/06/12 06:26:04;;;;;;;43.95;8.10;;;;;;;;;;5098045;28;20064;-75
2022/06/12 06:28:31;;;;;;;34.67;7.22;;;;;;;;;;5115037;28;20031;-75
2022/06/12 06:30:57;;;;;;;43.17;7.60;;;;;;;;;;5115245;28;20100;-75
2022/06/12 06:33:23;;;;;;;37.97;6.13;;;16.10;99.90;;;;;;5114956;28;20047;-74
2022/06/12 06:35:49;;;;;;;28.10;5.35;;;17.10;99.90;;;;;;5115159;28;20043;-75
2022/06/12 06:38:16;;;;;;;30.15;5.15;;;;;;;;;;5114977;28;20054;-75
2022/06/12 06:40:42;;;;;;;27.95;5.00;;;;;;;;;;5097907;28;20445;-75
2022/06/12 06:43:09;;;;;;;30.08;5.78;;;;;;;;;;5114792;28;20044;-75
2022/06/12 06:48:20;;;;;;;27.63;4.03;;;;;;;;;;5114600;28;20111;-76
2022/06/12 06:50:47;;;;;;;24.58;4.15;;;;;;;;;;5114487;28;20050;-75
2022/06/12 06:53:14;;;;;;;27.30;5.80;;;17.00;99.90;;;;;;5097763;28;20484;-74
2022/06/12 06:55:41;;;;;;;30.73;4.95;;;;;;;;;;5114520;28;20036;-75
2022/06/12 06:58:10;;;;;;;30.10;5.97;;;18.10;99.90;;;;;;5114666;28;20043;-74
2022/06/12 07:00:38;;;;;;;29.08;5.00;;;17.30;99.90;;;;;;5097490;28;20476;-74
2022/06/12 07:03:05;;;;;;;24.88;5.22;;;17.30;99.90;;;;;;5097347;28;20131;-71
2022/06/12 07:05:31;;;;;;;27.95;5.15;;;;;;;;;;5097595;28;20047;-71
2022/06/12 07:07:57;;;;;;;22.00;4.43;;;;;;;;;;5114185;28;20044;-71
2022/06/12 07:10:25;;;;;;;24.02;4.50;;;17.30;99.90;;;;;;5113942;28;20085;-75
2022/06/12 07:12:51;;;;;;;28.83;4.65;;;;;;;;;;5113965;28;20047;-75
2022/06/12 07:15:17;;;;;;;31.67;5.57;;;;;;;;;;5114054;28;20398;-74
2022/06/12 07:17:45;;;;;;;27.38;4.30;;;;;;;;;;5114418;28;20035;-74
2022/06/12 07:20:14;;;;;;;24.75;4.00;;;18.20;99.90;;;;;;5096964;28;20036;-74
2022/06/12 07:22:40;;;;;;;22.85;3.92;;;;;;;;;;5114117;28;20027;-74
2022/06/12 07:25:07;;;;;;;23.08;4.22;;;17.50;99.80;;;;;;5113880;28;20035;-74
2022/06/12 07:27:33;;;;;;;19.85;3.58;;;18.60;99.90;;;;;;5113872;28;20088;-75
2022/06/12 07:29:58;;;;;;;17.92;4.07;;;18.20;99.90;;;;;;5113653;28;20040;-75
2022/06/12 07:32:25;;;;;;;18.45;4.00;;;16.40;99.90;;;;;;5114055;28;20040;-75
2022/06/12 07:34:53;;;;;;;19.52;3.45;;;18.50;99.90;;;;;;5115241;28;20039;-74
2022/06/12 07:37:19;;;;;;;12.50;2.95;;;;;;;;;;5113888;28;20058;-75
2022/06/12 07:39:46;;;;;;;15.40;3.40;;;;;;;;;;5113650;28;20071;-75
2022/06/12 07:42:11;;;;;;;14.40;3.70;;;16.60;99.90;;;;;;5113847;28;20051;-74
2022/06/12 07:44:39;;;;;;;15.20;4.03;;;17.00;99.90;;;;;;5113570;28;20040;-75
2022/06/12 07:47:06;;;;;;;21.35;3.88;;;18.10;99.90;;;;;;5113889;28;20089;-75
2022/06/12 07:49:32;;;;;;;17.38;3.63;;;17.60;99.90;;;;;;5113598;28;20506;-75
2022/06/12 07:52:01;;;;;;;14.05;2.90;;;17.70;98.40;;;;;;5096548;28;20048;-75
2022/06/12 07:54:28;;;;;;;16.23;3.40;;;17.60;98.10;;;;;;5114800;27;20414;-72
2022/06/12 07:56:55;;;;;;;17.45;3.30;;;;;;;;;;5112803;28;20036;-72
2022/06/12 07:59:21;;;;;;;8.15;2.65;;;;;;;;;;5096465;28;20075;-72
2022/06/12 08:01:47;;;;;;;12.90;3.20;;;17.90;98.80;;;;;;5113573;28;20043;-71
2022/06/12 08:04:14;;;;;;;13.35;3.00;;;18.10;97.40;;;;;;5113168;28;20043;-71
2022/06/12 08:06:40;;;;;;;17.75;3.55;;;18.00;99.90;;;;;;5096303;28;20075;-71
2022/06/12 08:09:10;;;;;;;15.32;3.05;;;18.00;97.60;;;;;;5079380;28;20075;-71
2022/06/12 08:11:36;;;;;;;12.23;2.85;;;17.00;97.30;;;;;;5113102;28;20080;-72
2022/06/12 08:14:02;;;;;;;12.07;2.63;;;;;;;;;;5113098;28;20043;-71
2022/06/12 08:16:29;;;;;;;13.15;3.20;;;18.20;95.90;;;;;;5113051;28;20047;-71
2022/06/12 08:18:55;;;;;;;8.60;2.50;;;;;;;;;;5113057;28;20036;-71
2022/06/12 08:21:23;;;;;;;10.20;2.33;;;18.10;99.90;;;;;;5112964;28;20137;-72
2022/06/12 08:23:57;;;;;;;13.80;3.15;;;18.20;95.10;;;;;;5113161;28;20047;-71
2022/06/12 08:26:31;;;;;;;9.73;2.60;;;18.30;95.70;;;;;;5112788;28;20052;-72
2022/06/12 08:29:04;;;;;;;11.90;2.90;;;18.40;95.30;;;;;;5112617;28;20046;-71
2022/06/12 08:31:43;;;;;;;10.90;2.72;;;18.00;96.60;;;;;;5095903;28;20035;-72
2022/06/12 08:34:15;;;;;;;14.00;2.60;;;18.70;94.90;;;;;;5112682;28;20043;-72
2022/06/12 08:36:41;;;;;;;13.05;2.78;;;19.50;98.20;;;;;;5113106;28;20043;-72
2022/06/12 08:39:08;;;;;;;16.50;3.15;;;19.00;94.30;;;;;;5079222;28;20043;-72
2022/06/12 08:41:59;;;;;;;9.63;2.72;;;19.20;95.10;;;;;;5112641;28;20119;-72
2022/06/12 08:44:33;;;;;;;11.82;3.08;;;19.30;93.80;;;;;;5065846;28;20091;-72
2022/06/12 08:46:59;;;;;;;16.70;2.83;;;;;;;;;;5112449;28;20040;-72
2022/06/12 08:49:47;;;;;;;8.13;2.65;;;18.90;97.60;;;;;;5112384;28;20042;-72
2022/06/12 08:52:16;;;;;;;13.68;3.08;;;19.10;93.40;;;;;;5112469;28;20035;-72
2022/06/12 08:54:55;;;;;;;9.05;3.10;;;19.70;97.60;;;;;;5112634;28;20039;-72
2022/06/12 08:57:28;;;;;;;12.90;3.10;;;19.10;94.00;;;;;;5112387;28;20048;-72
2022/06/12 08:59:54;;;;;;;16.17;3.30;;;;;;;;;;5112199;28;20496;-72
2022/06/12 09:02:26;;;;;;;8.95;3.20;;;19.20;94.30;;;;;;5112297;28;20506;-72
2022/06/12 09:04:53;;;;;;;11.40;2.80;;;19.10;93.70;;;;;;5112137;28;20040;-72
2022/06/12 09:07:24;;;;;;;14.52;3.00;;;;;;;;;;5113379;28;20031;-72
2022/06/12 09:10:05;;;;;;;17.23;3.63;;;18.80;97.30;;;;;;5098791;28;20087;-72
2022/06/12 09:12:48;;;;;;;12.48;3.22;;;20.20;97.40;;;;;;5099661;28;20046;-72
2022/06/12 09:15:14;;;;;;;14.18;2.90;;;;;;;;;;5116677;28;20046;-72
2022/06/12 09:17:54;;;;;;;12.88;3.22;;;20.10;97.50;;;;;;5116628;28;20058;-72
2022/06/12 09:20:20;;;;;;;16.45;3.67;;;;;;;;;;5099333;28;20035;-72
2022/06/12 09:23:31;;;;;;;14.68;2.80;;;19.60;94.30;;;;;;5099192;28;20048;-72
2022/06/12 09:26:06;;;;;;;17.20;3.22;;;19.30;97.20;;;;;;5107529;28;20059;-72
2022/06/12 09:28:37;;;;;;;10.57;2.70;;;19.50;93.50;;;;;;5116318;28;20035;-72
2022/06/12 09:31:04;;;;;;;12.43;3.38;;;;;;;;;;5116128;28;20040;-72
2022/06/12 09:34:04;;;;;;;14.75;3.22;;;20.40;96.60;;;;;;5099172;28;20050;-72
2022/06/12 09:37:00;;;;;;;14.25;3.78;;;19.70;91.80;;;;;;5116155;28;20043;-72
2022/06/12 09:39:50;;;;;;;13.32;3.53;;;20.00;93.20;;;;;;5115958;28;20494;-75
2022/06/12 09:42:20;;;;;;;15.52;3.75;;;20.20;92.60;;;;;;5115939;28;20043;-75
2022/06/12 09:45:06;;;;;;;14.13;3.53;;;20.80;96.40;;;;;;5116151;28;20039;-75
2022/06/12 09:47:44;;;;;;;14.05;3.20;;;20.60;95.80;;;;;;5115805;28;20039;-75
2022/06/12 09:50:29;;;;;;;12.43;3.00;;;20.50;92.00;;;;;;5115723;28;20051;-75
2022/06/12 09:53:08;;;;;;;14.55;3.17;;;20.30;95.90;;;;;;5115674;28;20119;-75
2022/06/12 09:55:41;;;;;;;15.48;3.63;;;20.40;92.20;;;;;;5098788;28;20042;-75
2022/06/12 09:58:29;;;;;;;11.13;3.20;;;20.40;92.20;;;;;;5115646;28;20039;-75
2022/06/12 10:00:57;;;;;;;9.65;2.88;;;21.20;95.60;;;;;;5115902;28;20051;-75
2022/06/12 10:03:31;;;;;;;15.63;3.28;;;21.30;95.20;;;;;;5098528;28;20048;-75
2022/06/12 10:06:00;;;;;;;16.55;3.20;;;20.30;91.20;;;;;;5098540;28;20044;-74
2022/06/12 10:08:42;;;;;;;16.77;3.80;;;20.80;95.10;;;;;;5115757;27;20100;-75
2022/06/12 10:11:13;;;;;;;14.90;3.43;;;21.10;95.00;;;;;;5102070;27;20039;-75
2022/06/12 10:13:52;;;;;;;15.45;3.75;;;21.30;93.90;;;;;;5118915;27;20040;-74
2022/06/12 10:16:37;;;;;;;12.25;3.28;;;20.40;90.30;;;;;;5118728;27;20047;-74
2022/06/12 10:19:23;;;;;;;12.15;3.60;;;20.50;91.40;;;;;;5118641;27;20043;-74
2022/06/12 10:21:53;;;;;;;9.82;3.10;;;20.40;91.60;;;;;;5100765;27;20093;-74
2022/06/12 10:24:20;;;;;;;14.68;4.30;;;20.50;91.50;;;;;;5118578;27;20403;-75
2022/06/12 10:27:13;;;;;;;16.48;3.53;;;21.00;95.40;;;;;;5118412;27;20043;-75
2022/06/12 10:29:41;;;;;;;15.85;3.58;;;20.80;95.50;;;;;;5097911;27;20399;-75
2022/06/12 10:32:13;;;;;;;13.70;4.03;;;20.10;95.50;;;;;;5118514;27;20043;-75
2022/06/12 10:34:39;;;;;;;14.82;3.95;;;;;;;;;;5118585;27;20383;-75
2022/06/12 10:37:31;;;;;;;21.27;3.80;;;20.60;95.30;;;;;;5101349;27;20039;-75
2022/06/12 10:40:06;;;;;;;13.55;3.50;;;20.30;90.70;;;;;;5113534;27;20184;-75
2022/06/12 10:42:43;;;;;;;17.58;3.50;;;20.00;95.20;;;;;;5101296;27;20039;-74
2022/06/12 10:45:19;;;;;;;15.52;4.72;;;20.50;90.40;;;;;;5118143;27;20164;-75
2022/06/12 10:47:47;;;;;;;14.75;4.15;;;19.60;94.80;;;;;;5118116;27;20043;-75
2022/06/12 10:50:13;;;;;;;25.70;5.20;;;19.70;95.10;;;;;;5118063;27;20061;-75
2022/06/12 10:52:51;;;;;;;14.75;4.15;;;20.10;95.30;;;;;;5100824;27;20563;-75
2022/06/12 10:55:23;;;;;;;20.33;4.63;;;21.20;95.40;;;;;;5118015;27;20043;-75
2022/06/12 10:58:01;;;;;;;11.50;3.65;;;20.90;91.30;;;;;;5117713;27;20035;-76
2022/06/12 11:00:34;;;;;;;14.43;3.83;;;20.80;95.40;;;;;;5117935;27;20133;-75
2022/06/12 11:03:15;;;;;;;19.95;4.50;;;20.20;90.50;;;;;;5100980;27;20069;-75
2022/06/12 11:06:04;;;;;;;16.38;4.00;;;20.60;91.10;;;;;;5118003;27;20043;-74
2022/06/12 11:08:30;;;;;;;20.25;3.95;;;;;;;;;;5100495;27;20043;-75
2022/06/12 11:10:56;;;;;;;15.70;4.22;;;;;;;;;;5118091;27;20050;-75
2022/06/12 11:13:49;;;;;;;20.73;3.95;;;20.70;95.00;;;;;;5117819;27;20361;-75
2022/06/12 11:16:52;;;;;;;13.82;3.33;;;20.50;94.40;;;;;;5117795;27;20403;-75
2022/06/12 11:19:36;;;;;;;;;;;20.80;91.30;;;;;;5100852;27;20495;-73
2022/06/12 11:22:32;;;;;;;15.05;3.50;;;21.60;93.90;;;;;;5100290;27;20010;-74
2022/06/12 11:25:13;;;;;;;15.13;3.63;;;20.90;88.90;;;;;;5117016;27;20092;-74
2022/06/12 11:28:10;;;;;;;11.88;3.20;;;21.30;93.40;;;;;;5117227;27;20122;-73
2022/06/12 11:30:51;;;;;;;13.02;3.40;;;21.20;87.20;;;;;;5117158;27;20043;-74
2022/06/12 11:33:27;;;;;;;17.30;3.70;;;21.80;93.20;;;;;;5116504;27;20398;-74
2022/06/12 11:36:12;;;;;;;11.02;3.17;;;21.70;92.90;;;;;;5117523;27;20168;-74
2022/06/12 11:38:48;;;;;;;13.50;2.90;;;20.90;92.30;;;;;;5100342;27;20095;-74
2022/06/12 11:41:50;;;;;;;13.70;3.55;;;21.70;92.80;;;;;;5116910;27;20047;-74
2022/06/12 11:44:37;;;;;;;14.30;3.10;;;21.70;92.70;;;;;;5100191;27;20442;-74
2022/06/12 11:47:03;;;;;;;12.80;3.17;;;;;;;;;;5117019;27;20039;-75
2022/06/12 11:49:47;;;;;;;17.15;3.47;;;20.30;91.50;;;;;;5116963;27;20043;-75
2022/06/12 11:52:56;;;;;;;16.65;3.38;;;20.30;91.90;;;;;;5099780;27;20031;-75
2022/06/12 11:55:44;;;;;;;8.57;2.85;;;21.10;92.40;;;;;;5015801;28;20383;-74
2022/06/12 11:58:56;;;;;;;13.98;3.45;;;20.90;92.30;;;;;;5111146;27;20051;-75
2022/06/12 12:01:47;;;;;;;15.48;3.35;;;21.00;87.50;;;;;;5116869;27;20081;-75
2022/06/12 12:04:36;;;;;;;15.40;3.22;;;21.00;91.80;;;;;;5116855;27;20473;-76
2022/06/12 12:07:17;;;;;;;15.32;3.40;;;20.10;90.30;;;;;;5116049;27;20487;-75
2022/06/12 12:10:21;;;;;;;13.27;3.47;;;21.00;91.60;;;;;;5116359;27;20051;-75
2022/06/12 12:12:54;;;;;;;17.27;3.63;;;20.10;91.30;;;;;;5116297;27;20031;-75
2022/06/12 12:15:25;;;;;;;10.93;3.13;;;20.90;91.50;;;;;;5099410;27;20039;-76
2022/06/12 12:17:54;;;;;;;16.10;3.25;;;20.80;86.50;;;;;;5116250;27;20118;-75
2022/06/12 12:20:41;;;;;;;16.55;3.60;;;21.40;91.40;;;;;;5116332;27;20095;-74
2022/06/12 12:23:19;;;;;;;14.50;3.30;;;22.00;84.90;;;;;;5099115;27;20454;-74
2022/06/12 12:25:59;;;;;;;21.38;3.88;;;21.60;92.10;;;;;;5116068;27;20054;-74
2022/06/12 12:28:43;;;;;;;17.63;3.80;;;21.40;91.80;;;;;;5116060;27;20043;-76
2022/06/12 12:31:15;;;;;;;12.82;3.97;;;21.60;91.80;;;;;;5116492;27;20039;-75
2022/06/12 12:33:42;;;;;;;;;;;21.70;87.40;;;;;;5116797;27;20074;-74
2022/06/12 12:41:46;;;;;;;10.90;3.30;;;21.90;91.10;;;;;;5115996;27;20043;-74
2022/06/12 12:44:16;;;;;;;15.00;3.70;;;21.30;91.00;;;;;;5115759;27;20487;-74
2022/06/12 12:46:51;;;;;;;14.38;4.25;;;22.40;91.60;;;;;;5115953;27;20510;-75
2022/06/12 12:49:29;;;;;;;22.70;4.55;;;21.60;84.50;;;;;;5116087;27;20440;-74
2022/06/12 12:52:10;;;;;;;15.00;3.38;;;21.20;86.00;;;;;;5115790;27;20100;-75
2022/06/12 12:54:44;;;;;;;12.82;3.30;;;20.10;91.40;;;;;;5115974;28;20364;-74
2022/06/12 12:57:16;;;;;;;11.98;3.30;;;21.60;92.20;;;;;;5115795;28;20042;-74
2022/06/12 12:59:52;;;;;;;13.77;3.30;;;20.20;92.30;;;;;;5115734;28;20517;-74
2022/06/12 13:02:35;;;;;;;15.98;3.40;;;21.40;83.30;;;;;;5115924;28;20288;-75
2022/06/12 13:05:21;;;;;;;15.50;3.47;;;21.50;91.00;;;;;;5115752;28;20130;-75
2022/06/12 13:07:47;;;;;;;15.50;3.92;;;;;;;;;;5115696;28;20038;-75
2022/06/12 13:10:42;;;;;;;15.10;3.22;;;21.90;90.30;;;;;;5098481;28;20138;-74
2022/06/12 13:13:17;;;;;;;14.88;3.85;;;21.20;90.90;;;;;;5115582;28;20372;-74
2022/06/12 13:15:52;;;;;;;17.73;3.90;;;20.90;86.60;;;;;;5115563;28;20391;-75
2022/06/12 13:18:30;;;;;;;14.98;3.47;;;21.40;91.00;;;;;;5115481;28;20039;-74
2022/06/12 13:21:11;;;;;;;22.95;4.28;;;20.50;87.80;;;;;;5115575;28;20058;-74
2022/06/12 13:23:59;;;;;;;20.05;4.10;;;21.70;91.90;;;;;;5115800;28;20172;-74
2022/06/12 13:26:28;;;;;;;16.45;4.47;;;20.60;92.00;;;;;;5115575;28;20039;-74
2022/06/12 13:28:58;;;;;;;18.48;4.65;;;21.60;92.60;;;;;;5115442;28;20516;-74
2022/06/12 13:31:24;;;;;;;20.15;4.60;;;;;;;;;;5098567;28;20050;-75
2022/06/12 13:33:58;;;;;;;18.65;4.97;;;19.70;90.30;;;;;;5115797;28;20092;-75
2022/06/12 13:36:35;;;;;;;23.75;5.20;;;20.90;93.40;;;;;;5115482;28;20071;-74
2022/06/12 13:39:20;;;;;;;18.42;4.63;;;20.60;94.20;;;;;;5098527;28;20494;-74
2022/06/12 13:41:54;;;;;;;26.30;5.35;;;20.80;93.90;;;;;;5115628;28;20692;-74
2022/06/12 13:44:22;;;;;;;25.27;5.43;;;20.20;93.50;;;;;;5098421;28;20046;-76
2022/06/12 13:46:49;;;;;;;19.63;5.15;;;21.20;94.00;;;;;;5115288;28;20043;-74
2022/06/12 13:49:27;;;;;;;17.13;4.50;;;20.10;93.50;;;;;;5115228;28;20121;-74
2022/06/12 13:52:03;;;;;;;18.83;4.10;;;20.60;93.50;;;;;;5115654;28;20046;-74
2022/06/12 13:54:29;;;;;;;16.73;3.78;;;;;;;;;;5098357;28;20070;-74
2022/06/12 13:57:04;;;;;;;15.10;3.83;;;20.70;90.40;;;;;;5118831;27;20035;-74
2022/06/12 13:59:37;;;;;;;19.45;4.78;;;19.80;93.50;;;;;;5119083;27;20043;-75